Islamorada, FL (33036)

2:57 AM EDT on October 23, 2014 (GMT -0400)
Brown and Crebbin Design Studio | Change Station
CLOSE
Current Station
Personal Weather Station
Location: Plantation Key, FL
Elevation: 9 ft
Nearby Weather Stations

Elev 9 ft 25.00 °N, 80.54 °W | Updated 2 seconds ago

Rain
Rain
74.1 °F
Feels Like 71 °F
N
0.0
Wind Variable Wind from ENE
Gusts 0.0 mph

Today
High -- | Low -- °F
--% Chance of Precip.
Yesterday
High -- | Low -- °F
Precip. -- in
7:24 AM 6:48 PM
Waning Crescent, 0% visible
Pressure 29.91 in
Visibility 9.0 miles
Clouds Clear
Heat Index 71 °F
Dew Point 73 °F
Humidity 97%
Rainfall 0.05 in
Snow Depth Not available.
UV 0 out of 12
Pollen 1.70 out of 12
Air Quality Not available.
Flu Activity Local Activity
SPECI KHST 230643Z AUTO 30002KT 9SM R05/5500FT CLR 23/23 A2991 RMK AO2

More Conditions Fewer Conditions

Pressure 29.91 in
Visibility 9.0 miles
Clouds Clear
Heat Index 71 °F
Dew Point 73 °F
Humidity 97%
Rainfall 0.05 in
Snow Depth Not available.
UV 0 out of 12
Pollen 1.70 out of 12
Air Quality Not available.
Flu Activity Local Activity
SPECI KHST 230643Z AUTO 30002KT 9SM R05/5500FT CLR 23/23 A2991 RMK AO2

More Conditions Fewer Conditions

Nowcast | as of 2:04 am EDT on October 23, 2014

An expansive area of moderate to heavy rain with a few embedded showers and thunderstorms is impacting all Keys waters. The stronger showers are well south...beyond 40 nm offshore of the middle lower and Marquesas Keys. These stronger showers will produce wind gusts near 25 knots...less than 2 mile visibility in heavy rain...and a rare lightning strike. Through 300 am...light rain will continue across the Florida Keys.

×

10-Day Weather Forecast

Almanac

Astronomy

Oct. 23, 2014 Rise Set
Actual Time 7:24 AM EDT 6:48 PM EDT
Civil Twilight 7:01 AM EDT 7:11 PM EDT
Nautical Twilight 6:34 AM EDT 7:38 PM EDT
Astronomical Twilight 6:08 AM EDT 8:05 PM EDT
Moon 7:05 AM EDT 6:49 PM EDT
Length of Visible Light 12h 10m
Length of Day
11h 23m
Tomorrow will be 1m 20s shorter.
Waning Crescent, 0% of the Moon is Illuminated
Today
Waning Crescent
Oct 23
New
Oct 30
First Quarter
Nov 6
Full
Nov 14
Last Quarter

Today's Extremes

State Highs State Lows

Community

WunderPhotos

Upload Photos

1,764,194 photos uploaded!

Nearby

Snow Depth

Station Depth Elevation
No new snow has been reported.

Earthquake Activity

City Distance Mag. Time & Date
No recent earthquake activity has been reported nearby.
Minimum magnitude displayed is 2.5.

Coastal Water Temperatures

Place Temperature
No Stations Reporting

Nearby Weather Stations